sensor_id;sensor_type;location;lat;lon;timestamp;P1;durP1;ratioP1;P2;durP2;ratioP2
82948;SDS011;72736;50.236;18.876;2023-12-07T00:00:52;56.00;;;20.20;;
82948;SDS011;72736;50.236;18.876;2023-12-07T00:05:59;71.50;;;25.20;;
82948;SDS011;72736;50.236;18.876;2023-12-07T00:11:05;47.40;;;18.20;;
82948;SDS011;72736;50.236;18.876;2023-12-07T00:16:11;52.70;;;20.20;;
82948;SDS011;72736;50.236;18.876;2023-12-07T00:21:17;55.30;;;19.50;;
82948;SDS011;72736;50.236;18.876;2023-12-07T00:26:23;59.80;;;22.50;;
82948;SDS011;72736;50.236;18.876;2023-12-07T00:31:29;67.40;;;21.50;;
82948;SDS011;72736;50.236;18.876;2023-12-07T00:36:35;58.60;;;19.40;;
82948;SDS011;72736;50.236;18.876;2023-12-07T00:41:42;52.10;;;19.90;;
82948;SDS011;72736;50.236;18.876;2023-12-07T00:46:49;58.70;;;21.20;;
82948;SDS011;72736;50.236;18.876;2023-12-07T00:51:55;62.20;;;21.10;;
82948;SDS011;72736;50.236;18.876;2023-12-07T00:57:01;60.80;;;22.00;;
82948;SDS011;72736;50.236;18.876;2023-12-07T01:02:07;63.10;;;21.00;;
82948;SDS011;72736;50.236;18.876;2023-12-07T01:07:13;59.10;;;20.90;;
82948;SDS011;72736;50.236;18.876;2023-12-07T01:12:19;58.10;;;21.00;;
82948;SDS011;72736;50.236;18.876;2023-12-07T01:17:25;59.30;;;19.80;;
82948;SDS011;72736;50.236;18.876;2023-12-07T01:22:31;57.40;;;22.10;;
82948;SDS011;72736;50.236;18.876;2023-12-07T01:27:37;75.20;;;23.90;;
82948;SDS011;72736;50.236;18.876;2023-12-07T01:32:43;64.90;;;24.10;;
82948;SDS011;72736;50.236;18.876;2023-12-07T01:37:49;68.40;;;25.00;;
82948;SDS011;72736;50.236;18.876;2023-12-07T01:42:55;74.50;;;25.70;;
82948;SDS011;72736;50.236;18.876;2023-12-07T01:48:01;69.30;;;23.30;;
82948;SDS011;72736;50.236;18.876;2023-12-07T01:53:07;64.50;;;24.70;;
82948;SDS011;72736;50.236;18.876;2023-12-07T01:58:16;60.20;;;23.70;;
82948;SDS011;72736;50.236;18.876;2023-12-07T02:03:23;65.30;;;23.20;;
82948;SDS011;72736;50.236;18.876;2023-12-07T02:08:30;54.50;;;22.80;;
82948;SDS011;72736;50.236;18.876;2023-12-07T02:13:36;66.10;;;24.10;;
82948;SDS011;72736;50.236;18.876;2023-12-07T02:18:45;63.50;;;22.60;;
82948;SDS011;72736;50.236;18.876;2023-12-07T02:23:55;67.70;;;22.60;;
82948;SDS011;72736;50.236;18.876;2023-12-07T02:29:02;67.90;;;24.10;;
82948;SDS011;72736;50.236;18.876;2023-12-07T02:34:08;69.60;;;24.40;;
82948;SDS011;72736;50.236;18.876;2023-12-07T02:39:14;74.50;;;26.10;;
82948;SDS011;72736;50.236;18.876;2023-12-07T02:44:21;79.40;;;25.90;;
82948;SDS011;72736;50.236;18.876;2023-12-07T02:49:27;77.10;;;26.20;;
82948;SDS011;72736;50.236;18.876;2023-12-07T02:54:34;78.50;;;26.30;;
82948;SDS011;72736;50.236;18.876;2023-12-07T02:59:40;77.90;;;25.40;;
82948;SDS011;72736;50.236;18.876;2023-12-07T03:04:46;83.60;;;27.20;;
82948;SDS011;72736;50.236;18.876;2023-12-07T03:09:52;90.00;;;29.60;;
82948;SDS011;72736;50.236;18.876;2023-12-07T03:14:58;91.80;;;29.10;;
82948;SDS011;72736;50.236;18.876;2023-12-07T03:20:05;86.50;;;28.30;;
82948;SDS011;72736;50.236;18.876;2023-12-07T03:25:13;77.80;;;27.80;;
82948;SDS011;72736;50.236;18.876;2023-12-07T03:30:19;74.30;;;26.80;;
82948;SDS011;72736;50.236;18.876;2023-12-07T03:35:25;77.40;;;25.90;;
82948;SDS011;72736;50.236;18.876;2023-12-07T03:40:31;80.00;;;26.90;;
82948;SDS011;72736;50.236;18.876;2023-12-07T03:45:37;89.10;;;29.10;;
82948;SDS011;72736;50.236;18.876;2023-12-07T03:50:43;75.00;;;26.30;;
82948;SDS011;72736;50.236;18.876;2023-12-07T03:55:49;63.30;;;22.30;;
82948;SDS011;72736;50.236;18.876;2023-12-07T04:00:55;61.40;;;20.70;;
82948;SDS011;72736;50.236;18.876;2023-12-07T04:06:01;68.60;;;23.90;;
82948;SDS011;72736;50.236;18.876;2023-12-07T04:11:07;65.60;;;22.20;;
82948;SDS011;72736;50.236;18.876;2023-12-07T04:16:13;64.50;;;22.10;;
82948;SDS011;72736;50.236;18.876;2023-12-07T04:21:19;69.00;;;24.80;;
82948;SDS011;72736;50.236;18.876;2023-12-07T04:26:25;75.50;;;25.10;;
82948;SDS011;72736;50.236;18.876;2023-12-07T04:31:31;68.90;;;22.70;;
82948;SDS011;72736;50.236;18.876;2023-12-07T04:36:38;62.20;;;23.40;;
82948;SDS011;72736;50.236;18.876;2023-12-07T04:41:44;86.50;;;27.90;;
82948;SDS011;72736;50.236;18.876;2023-12-07T04:46:50;77.20;;;28.60;;
82948;SDS011;72736;50.236;18.876;2023-12-07T04:51:56;77.30;;;25.60;;
82948;SDS011;72736;50.236;18.876;2023-12-07T04:57:02;64.70;;;24.20;;
82948;SDS011;72736;50.236;18.876;2023-12-07T05:02:09;63.90;;;23.90;;
82948;SDS011;72736;50.236;18.876;2023-12-07T05:07:15;72.80;;;25.30;;
82948;SDS011;72736;50.236;18.876;2023-12-07T05:12:22;77.20;;;26.70;;
82948;SDS011;72736;50.236;18.876;2023-12-07T05:17:28;84.40;;;31.20;;
82948;SDS011;72736;50.236;18.876;2023-12-07T05:22:34;101.30;;;33.00;;
82948;SDS011;72736;50.236;18.876;2023-12-07T05:27:40;90.00;;;30.10;;
82948;SDS011;72736;50.236;18.876;2023-12-07T05:32:46;105.10;;;32.90;;
82948;SDS011;72736;50.236;18.876;2023-12-07T05:37:52;98.20;;;31.90;;
82948;SDS011;72736;50.236;18.876;2023-12-07T05:42:58;109.30;;;33.10;;
82948;SDS011;72736;50.236;18.876;2023-12-07T05:48:04;89.60;;;32.40;;
82948;SDS011;72736;50.236;18.876;2023-12-07T05:53:10;97.40;;;29.40;;
82948;SDS011;72736;50.236;18.876;2023-12-07T05:58:16;114.20;;;34.30;;
82948;SDS011;72736;50.236;18.876;2023-12-07T06:03:22;106.50;;;32.10;;
82948;SDS011;72736;50.236;18.876;2023-12-07T06:08:29;109.40;;;33.50;;
82948;SDS011;72736;50.236;18.876;2023-12-07T06:13:35;107.90;;;33.90;;
82948;SDS011;72736;50.236;18.876;2023-12-07T06:18:41;106.10;;;32.50;;
82948;SDS011;72736;50.236;18.876;2023-12-07T06:23:47;113.60;;;33.00;;
82948;SDS011;72736;50.236;18.876;2023-12-07T06:28:53;103.00;;;33.20;;
82948;SDS011;72736;50.236;18.876;2023-12-07T06:33:59;96.60;;;31.30;;
82948;SDS011;72736;50.236;18.876;2023-12-07T06:39:06;88.70;;;28.60;;
82948;SDS011;72736;50.236;18.876;2023-12-07T06:44:12;90.40;;;28.20;;
82948;SDS011;72736;50.236;18.876;2023-12-07T06:49:17;76.10;;;24.60;;
82948;SDS011;72736;50.236;18.876;2023-12-07T06:54:27;85.90;;;26.40;;
82948;SDS011;72736;50.236;18.876;2023-12-07T06:59:33;76.80;;;27.80;;
82948;SDS011;72736;50.236;18.876;2023-12-07T07:04:39;84.10;;;29.50;;
82948;SDS011;72736;50.236;18.876;2023-12-07T07:09:45;86.90;;;29.10;;
82948;SDS011;72736;50.236;18.876;2023-12-07T07:14:51;77.90;;;29.00;;
82948;SDS011;72736;50.236;18.876;2023-12-07T07:19:57;71.60;;;24.40;;
82948;SDS011;72736;50.236;18.876;2023-12-07T07:25:03;81.70;;;26.60;;
82948;SDS011;72736;50.236;18.876;2023-12-07T07:35:16;68.90;;;23.70;;
82948;SDS011;72736;50.236;18.876;2023-12-07T07:40:22;76.40;;;26.40;;
82948;SDS011;72736;50.236;18.876;2023-12-07T07:45:28;78.40;;;27.60;;
82948;SDS011;72736;50.236;18.876;2023-12-07T07:50:34;75.90;;;27.20;;
82948;SDS011;72736;50.236;18.876;2023-12-07T07:55:40;82.00;;;28.30;;
82948;SDS011;72736;50.236;18.876;2023-12-07T08:00:47;75.40;;;28.60;;
82948;SDS011;72736;50.236;18.876;2023-12-07T08:05:54;80.70;;;28.40;;
82948;SDS011;72736;50.236;18.876;2023-12-07T08:11:00;76.00;;;26.20;;
82948;SDS011;72736;50.236;18.876;2023-12-07T08:16:08;89.30;;;33.20;;
82948;SDS011;72736;50.236;18.876;2023-12-07T08:21:19;95.10;;;30.70;;
82948;SDS011;72736;50.236;18.876;2023-12-07T08:26:32;90.40;;;32.70;;
82948;SDS011;72736;50.236;18.876;2023-12-07T08:31:39;114.40;;;36.50;;
82948;SDS011;72736;50.236;18.876;2023-12-07T08:36:45;107.60;;;36.00;;
82948;SDS011;72736;50.236;18.876;2023-12-07T08:41:51;98.40;;;33.80;;
82948;SDS011;72736;50.236;18.876;2023-12-07T08:46:57;99.60;;;35.40;;
82948;SDS011;72736;50.236;18.876;2023-12-07T08:52:03;97.20;;;33.10;;
82948;SDS011;72736;50.236;18.876;2023-12-07T08:57:29;92.60;;;35.30;;
82948;SDS011;72736;50.236;18.876;2023-12-07T09:02:35;102.60;;;35.90;;
82948;SDS011;72736;50.236;18.876;2023-12-07T09:07:49;95.20;;;33.20;;
82948;SDS011;72736;50.236;18.876;2023-12-07T09:12:55;98.30;;;35.30;;
82948;SDS011;72736;50.236;18.876;2023-12-07T09:18:01;105.40;;;36.40;;
82948;SDS011;72736;50.236;18.876;2023-12-07T09:23:07;104.00;;;37.30;;
82948;SDS011;72736;50.236;18.876;2023-12-07T09:28:13;103.30;;;36.50;;
82948;SDS011;72736;50.236;18.876;2023-12-07T09:33:19;99.60;;;37.60;;
82948;SDS011;72736;50.236;18.876;2023-12-07T09:38:25;101.20;;;35.50;;
82948;SDS011;72736;50.236;18.876;2023-12-07T09:43:31;94.40;;;32.10;;
82948;SDS011;72736;50.236;18.876;2023-12-07T09:48:38;95.30;;;36.20;;
82948;SDS011;72736;50.236;18.876;2023-12-07T09:53:48;96.80;;;35.00;;
82948;SDS011;72736;50.236;18.876;2023-12-07T09:58:57;105.20;;;35.60;;
82948;SDS011;72736;50.236;18.876;2023-12-07T10:04:16;99.60;;;34.70;;
82948;SDS011;72736;50.236;18.876;2023-12-07T10:09:24;93.10;;;34.00;;
82948;SDS011;72736;50.236;18.876;2023-12-07T10:14:35;102.80;;;34.20;;
82948;SDS011;72736;50.236;18.876;2023-12-07T10:19:43;103.40;;;36.70;;
82948;SDS011;72736;50.236;18.876;2023-12-07T10:24:49;107.70;;;36.50;;
82948;SDS011;72736;50.236;18.876;2023-12-07T10:29:55;98.80;;;38.20;;
82948;SDS011;72736;50.236;18.876;2023-12-07T10:35:03;105.20;;;37.30;;
82948;SDS011;72736;50.236;18.876;2023-12-07T10:40:10;104.80;;;36.50;;
82948;SDS011;72736;50.236;18.876;2023-12-07T10:45:17;102.60;;;35.00;;
82948;SDS011;72736;50.236;18.876;2023-12-07T10:50:27;90.10;;;33.20;;
82948;SDS011;72736;50.236;18.876;2023-12-07T10:55:38;102.40;;;34.30;;
82948;SDS011;72736;50.236;18.876;2023-12-07T11:00:50;93.40;;;33.90;;
82948;SDS011;72736;50.236;18.876;2023-12-07T11:05:58;106.00;;;36.30;;
82948;SDS011;72736;50.236;18.876;2023-12-07T11:11:06;98.20;;;34.30;;
82948;SDS011;72736;50.236;18.876;2023-12-07T11:16:16;98.50;;;34.20;;
82948;SDS011;72736;50.236;18.876;2023-12-07T11:21:32;112.80;;;37.10;;
82948;SDS011;72736;50.236;18.876;2023-12-07T11:26:38;96.10;;;32.10;;
82948;SDS011;72736;50.236;18.876;2023-12-07T11:31:49;99.90;;;34.00;;
82948;SDS011;72736;50.236;18.876;2023-12-07T11:36:55;103.30;;;34.30;;
82948;SDS011;72736;50.236;18.876;2023-12-07T11:42:06;99.90;;;34.50;;
82948;SDS011;72736;50.236;18.876;2023-12-07T11:47:16;100.10;;;33.60;;
82948;SDS011;72736;50.236;18.876;2023-12-07T11:52:24;107.90;;;34.20;;
82948;SDS011;72736;50.236;18.876;2023-12-07T11:57:30;97.10;;;33.90;;
82948;SDS011;72736;50.236;18.876;2023-12-07T12:02:37;94.80;;;31.10;;
82948;SDS011;72736;50.236;18.876;2023-12-07T12:07:44;86.90;;;29.80;;
82948;SDS011;72736;50.236;18.876;2023-12-07T12:12:50;82.30;;;28.30;;
82948;SDS011;72736;50.236;18.876;2023-12-07T12:17:57;95.70;;;31.10;;
82948;SDS011;72736;50.236;18.876;2023-12-07T12:28:08;87.50;;;28.10;;
82948;SDS011;72736;50.236;18.876;2023-12-07T12:33:14;85.50;;;29.70;;
82948;SDS011;72736;50.236;18.876;2023-12-07T12:38:20;87.70;;;31.50;;
82948;SDS011;72736;50.236;18.876;2023-12-07T12:43:40;77.90;;;28.30;;
82948;SDS011;72736;50.236;18.876;2023-12-07T12:48:55;80.90;;;28.70;;
82948;SDS011;72736;50.236;18.876;2023-12-07T12:54:02;81.00;;;27.90;;
82948;SDS011;72736;50.236;18.876;2023-12-07T12:59:12;89.00;;;29.10;;
82948;SDS011;72736;50.236;18.876;2023-12-07T13:04:18;79.60;;;29.00;;
82948;SDS011;72736;50.236;18.876;2023-12-07T13:09:24;77.20;;;27.40;;
82948;SDS011;72736;50.236;18.876;2023-12-07T13:14:31;81.60;;;28.90;;
82948;SDS011;72736;50.236;18.876;2023-12-07T13:19:39;80.70;;;30.50;;
82948;SDS011;72736;50.236;18.876;2023-12-07T13:24:47;90.70;;;32.00;;
82948;SDS011;72736;50.236;18.876;2023-12-07T13:29:53;90.00;;;32.70;;
82948;SDS011;72736;50.236;18.876;2023-12-07T13:34:59;89.40;;;33.30;;
82948;SDS011;72736;50.236;18.876;2023-12-07T13:40:06;89.60;;;30.20;;
82948;SDS011;72736;50.236;18.876;2023-12-07T13:45:14;90.50;;;32.60;;
82948;SDS011;72736;50.236;18.876;2023-12-07T13:50:21;85.30;;;32.50;;
82948;SDS011;72736;50.236;18.876;2023-12-07T13:55:27;83.40;;;31.40;;
82948;SDS011;72736;50.236;18.876;2023-12-07T14:00:33;79.80;;;28.50;;
82948;SDS011;72736;50.236;18.876;2023-12-07T14:05:41;76.20;;;28.70;;
82948;SDS011;72736;50.236;18.876;2023-12-07T14:10:49;82.20;;;30.80;;
82948;SDS011;72736;50.236;18.876;2023-12-07T14:15:55;79.10;;;29.50;;
82948;SDS011;72736;50.236;18.876;2023-12-07T14:21:15;79.10;;;30.20;;
82948;SDS011;72736;50.236;18.876;2023-12-07T14:26:38;81.60;;;29.80;;
82948;SDS011;72736;50.236;18.876;2023-12-07T14:31:48;84.90;;;30.50;;
82948;SDS011;72736;50.236;18.876;2023-12-07T14:36:54;77.20;;;27.60;;
82948;SDS011;72736;50.236;18.876;2023-12-07T14:42:00;77.90;;;30.10;;
82948;SDS011;72736;50.236;18.876;2023-12-07T14:47:08;70.80;;;29.20;;
82948;SDS011;72736;50.236;18.876;2023-12-07T14:52:14;75.50;;;28.40;;
82948;SDS011;72736;50.236;18.876;2023-12-07T14:57:20;78.90;;;29.00;;
82948;SDS011;72736;50.236;18.876;2023-12-07T15:02:26;77.40;;;29.50;;
82948;SDS011;72736;50.236;18.876;2023-12-07T15:07:32;80.10;;;30.00;;
82948;SDS011;72736;50.236;18.876;2023-12-07T15:12:38;85.60;;;31.50;;
82948;SDS011;72736;50.236;18.876;2023-12-07T15:17:44;78.00;;;31.70;;
82948;SDS011;72736;50.236;18.876;2023-12-07T15:22:50;87.00;;;33.80;;
82948;SDS011;72736;50.236;18.876;2023-12-07T15:27:56;93.20;;;36.20;;
82948;SDS011;72736;50.236;18.876;2023-12-07T15:33:02;81.40;;;31.60;;
82948;SDS011;72736;50.236;18.876;2023-12-07T15:43:14;75.30;;;25.40;;
82948;SDS011;72736;50.236;18.876;2023-12-07T15:48:20;68.80;;;25.30;;
82948;SDS011;72736;50.236;18.876;2023-12-07T15:53:27;67.50;;;25.80;;
82948;SDS011;72736;50.236;18.876;2023-12-07T15:58:33;68.20;;;25.50;;
82948;SDS011;72736;50.236;18.876;2023-12-07T16:03:39;83.20;;;27.70;;
82948;SDS011;72736;50.236;18.876;2023-12-07T16:08:45;78.10;;;27.60;;
82948;SDS011;72736;50.236;18.876;2023-12-07T16:13:51;72.70;;;25.20;;
82948;SDS011;72736;50.236;18.876;2023-12-07T16:18:57;81.30;;;27.20;;
82948;SDS011;72736;50.236;18.876;2023-12-07T16:24:03;71.30;;;27.10;;
82948;SDS011;72736;50.236;18.876;2023-12-07T16:29:10;78.50;;;26.30;;
82948;SDS011;72736;50.236;18.876;2023-12-07T16:34:17;74.80;;;27.20;;
82948;SDS011;72736;50.236;18.876;2023-12-07T16:39:25;68.10;;;27.10;;
82948;SDS011;72736;50.236;18.876;2023-12-07T16:44:31;81.90;;;27.60;;
82948;SDS011;72736;50.236;18.876;2023-12-07T16:49:37;66.70;;;24.60;;
82948;SDS011;72736;50.236;18.876;2023-12-07T16:54:45;70.70;;;24.30;;
82948;SDS011;72736;50.236;18.876;2023-12-07T16:59:51;67.60;;;25.10;;
82948;SDS011;72736;50.236;18.876;2023-12-07T17:04:57;69.10;;;24.80;;
82948;SDS011;72736;50.236;18.876;2023-12-07T17:10:04;73.10;;;26.10;;
82948;SDS011;72736;50.236;18.876;2023-12-07T17:15:11;81.30;;;28.00;;
82948;SDS011;72736;50.236;18.876;2023-12-07T17:20:18;78.40;;;28.30;;
82948;SDS011;72736;50.236;18.876;2023-12-07T17:25:24;102.00;;;34.00;;
82948;SDS011;72736;50.236;18.876;2023-12-07T17:30:30;123.20;;;41.90;;
82948;SDS011;72736;50.236;18.876;2023-12-07T17:35:36;138.50;;;44.20;;
82948;SDS011;72736;50.236;18.876;2023-12-07T17:40:42;151.20;;;48.80;;
82948;SDS011;72736;50.236;18.876;2023-12-07T17:45:48;138.90;;;45.60;;
82948;SDS011;72736;50.236;18.876;2023-12-07T17:50:55;126.90;;;43.70;;
82948;SDS011;72736;50.236;18.876;2023-12-07T17:56:04;110.90;;;39.30;;
82948;SDS011;72736;50.236;18.876;2023-12-07T18:01:18;101.50;;;35.80;;
82948;SDS011;72736;50.236;18.876;2023-12-07T18:06:25;98.50;;;32.90;;
82948;SDS011;72736;50.236;18.876;2023-12-07T18:11:31;85.40;;;32.40;;
82948;SDS011;72736;50.236;18.876;2023-12-07T18:16:37;89.10;;;33.60;;
82948;SDS011;72736;50.236;18.876;2023-12-07T18:21:43;93.50;;;34.00;;
82948;SDS011;72736;50.236;18.876;2023-12-07T18:26:49;101.70;;;35.10;;
82948;SDS011;72736;50.236;18.876;2023-12-07T18:31:55;100.40;;;37.10;;
82948;SDS011;72736;50.236;18.876;2023-12-07T18:37:01;98.90;;;34.80;;
82948;SDS011;72736;50.236;18.876;2023-12-07T18:42:07;93.20;;;32.80;;
82948;SDS011;72736;50.236;18.876;2023-12-07T18:47:13;93.00;;;33.90;;
82948;SDS011;72736;50.236;18.876;2023-12-07T18:52:20;96.30;;;33.30;;
82948;SDS011;72736;50.236;18.876;2023-12-07T19:02:31;84.80;;;29.80;;
82948;SDS011;72736;50.236;18.876;2023-12-07T19:07:37;100.60;;;36.70;;
82948;SDS011;72736;50.236;18.876;2023-12-07T19:12:43;103.70;;;35.60;;
82948;SDS011;72736;50.236;18.876;2023-12-07T19:17:49;93.80;;;34.90;;
82948;SDS011;72736;50.236;18.876;2023-12-07T19:22:55;104.60;;;36.30;;
82948;SDS011;72736;50.236;18.876;2023-12-07T19:28:02;100.30;;;34.80;;
82948;SDS011;72736;50.236;18.876;2023-12-07T19:33:08;102.60;;;37.10;;
82948;SDS011;72736;50.236;18.876;2023-12-07T19:38:14;100.20;;;34.70;;
82948;SDS011;72736;50.236;18.876;2023-12-07T19:43:21;104.10;;;35.50;;
82948;SDS011;72736;50.236;18.876;2023-12-07T19:48:27;99.80;;;34.60;;
82948;SDS011;72736;50.236;18.876;2023-12-07T19:53:33;103.50;;;37.30;;
82948;SDS011;72736;50.236;18.876;2023-12-07T19:58:39;90.30;;;34.10;;
82948;SDS011;72736;50.236;18.876;2023-12-07T20:03:45;103.10;;;33.90;;
82948;SDS011;72736;50.236;18.876;2023-12-07T20:08:50;108.70;;;38.40;;
82948;SDS011;72736;50.236;18.876;2023-12-07T20:13:56;110.80;;;38.50;;
82948;SDS011;72736;50.236;18.876;2023-12-07T20:19:02;115.40;;;37.90;;
82948;SDS011;72736;50.236;18.876;2023-12-07T20:29:16;116.00;;;38.80;;
82948;SDS011;72736;50.236;18.876;2023-12-07T20:34:22;126.00;;;43.30;;
82948;SDS011;72736;50.236;18.876;2023-12-07T20:39:28;120.30;;;41.10;;
82948;SDS011;72736;50.236;18.876;2023-12-07T20:44:34;122.00;;;41.80;;
82948;SDS011;72736;50.236;18.876;2023-12-07T20:49:40;122.60;;;42.40;;
82948;SDS011;72736;50.236;18.876;2023-12-07T20:54:46;145.40;;;47.30;;
82948;SDS011;72736;50.236;18.876;2023-12-07T20:59:52;127.10;;;42.90;;
82948;SDS011;72736;50.236;18.876;2023-12-07T21:04:58;133.70;;;45.40;;
82948;SDS011;72736;50.236;18.876;2023-12-07T21:10:05;113.50;;;39.60;;
82948;SDS011;72736;50.236;18.876;2023-12-07T21:15:12;123.60;;;40.70;;
82948;SDS011;72736;50.236;18.876;2023-12-07T21:20:19;118.40;;;40.20;;
82948;SDS011;72736;50.236;18.876;2023-12-07T21:25:26;145.40;;;47.80;;
82948;SDS011;72736;50.236;18.876;2023-12-07T21:30:32;133.90;;;45.10;;
82948;SDS011;72736;50.236;18.876;2023-12-07T21:35:41;120.70;;;40.70;;
82948;SDS011;72736;50.236;18.876;2023-12-07T21:40:48;117.10;;;41.20;;
82948;SDS011;72736;50.236;18.876;2023-12-07T21:45:53;119.20;;;39.30;;
82948;SDS011;72736;50.236;18.876;2023-12-07T21:50:59;114.30;;;37.90;;
82948;SDS011;72736;50.236;18.876;2023-12-07T21:56:09;114.80;;;42.80;;
82948;SDS011;72736;50.236;18.876;2023-12-07T22:01:16;106.60;;;37.30;;
82948;SDS011;72736;50.236;18.876;2023-12-07T22:06:26;113.80;;;40.00;;
82948;SDS011;72736;50.236;18.876;2023-12-07T22:11:32;125.80;;;41.10;;
82948;SDS011;72736;50.236;18.876;2023-12-07T22:16:40;107.30;;;35.80;;
82948;SDS011;72736;50.236;18.876;2023-12-07T22:21:46;108.90;;;37.30;;
82948;SDS011;72736;50.236;18.876;2023-12-07T22:26:52;113.00;;;37.30;;
82948;SDS011;72736;50.236;18.876;2023-12-07T22:31:59;118.10;;;39.70;;
82948;SDS011;72736;50.236;18.876;2023-12-07T22:37:06;114.30;;;38.90;;
82948;SDS011;72736;50.236;18.876;2023-12-07T22:42:12;104.60;;;37.00;;
82948;SDS011;72736;50.236;18.876;2023-12-07T22:47:17;108.40;;;36.10;;
82948;SDS011;72736;50.236;18.876;2023-12-07T22:52:24;118.60;;;38.40;;
82948;SDS011;72736;50.236;18.876;2023-12-07T22:57:30;123.70;;;39.00;;
82948;SDS011;72736;50.236;18.876;2023-12-07T23:02:35;111.60;;;38.40;;
82948;SDS011;72736;50.236;18.876;2023-12-07T23:07:41;112.20;;;38.80;;
82948;SDS011;72736;50.236;18.876;2023-12-07T23:12:47;108.90;;;37.30;;
82948;SDS011;72736;50.236;18.876;2023-12-07T23:17:53;102.00;;;34.90;;
82948;SDS011;72736;50.236;18.876;2023-12-07T23:22:59;103.50;;;35.60;;
82948;SDS011;72736;50.236;18.876;2023-12-07T23:28:05;99.90;;;33.60;;
82948;SDS011;72736;50.236;18.876;2023-12-07T23:33:11;92.20;;;32.70;;
82948;SDS011;72736;50.236;18.876;2023-12-07T23:38:17;117.50;;;39.00;;
82948;SDS011;72736;50.236;18.876;2023-12-07T23:43:23;133.40;;;41.50;;
82948;SDS011;72736;50.236;18.876;2023-12-07T23:48:29;116.80;;;41.50;;
82948;SDS011;72736;50.236;18.876;2023-12-07T23:53:35;119.20;;;40.70;;
82948;SDS011;72736;50.236;18.876;2023-12-07T23:58:41;133.60;;;42.80;;
